createdAt,value
2019-01-21T00:00:16.303Z,82.62
2019-01-21T00:02:44.919Z,82.92
2019-01-21T00:05:13.497Z,82.71
2019-01-21T00:07:42.035Z,82.96
2019-01-21T00:10:10.678Z,82.95
2019-01-21T00:12:39.215Z,82.99
2019-01-21T00:15:09.127Z,83.04
2019-01-21T00:17:37.664Z,82.94
2019-01-21T00:20:07.345Z,82.91
2019-01-21T00:22:35.834Z,82.88
2019-01-21T00:25:05.753Z,82.76
2019-01-21T00:27:34.460Z,82.72
2019-01-21T00:30:03.075Z,82.79
2019-01-21T00:32:31.659Z,83.59
2019-01-21T00:35:00.203Z,83.55
2019-01-21T00:37:28.766Z,83.89
2019-01-21T00:39:57.349Z,84.09
2019-01-21T00:42:26.211Z,84.00
2019-01-21T00:44:54.679Z,84.22
2019-01-21T00:47:29.686Z,84.12
2019-01-21T00:49:53.483Z,84.23
2019-01-21T00:52:21.954Z,84.10
2019-01-21T00:54:51.100Z,84.19
2019-01-21T00:57:19.842Z,84.02
2019-01-21T00:59:48.360Z,84.67
2019-01-21T01:02:17.000Z,84.65
2019-01-21T01:04:45.675Z,84.39
2019-01-21T01:07:14.203Z,84.08
2019-01-21T01:09:42.701Z,84.27
2019-01-21T01:12:11.319Z,84.52
2019-01-21T01:14:39.789Z,84.81
2019-01-21T01:17:08.545Z,84.60
2019-01-21T01:19:37.139Z,84.58
2019-01-21T01:22:05.594Z,84.45
2019-01-21T01:24:34.082Z,84.48
2019-01-21T01:27:02.913Z,84.98
2019-01-21T01:29:31.384Z,85.15
2019-01-21T01:32:00.167Z,85.24
2019-01-21T01:34:28.678Z,85.31
2019-01-21T01:36:57.611Z,85.40
2019-01-21T01:39:26.402Z,85.32
2019-01-21T01:41:54.901Z,85.33
2019-01-21T01:44:23.538Z,84.96
2019-01-21T01:46:52.015Z,84.78
2019-01-21T01:49:20.805Z,84.19
2019-01-21T01:51:49.605Z,83.95
2019-01-21T01:54:18.301Z,84.06
2019-01-21T01:56:47.082Z,84.07
2019-01-21T01:59:15.719Z,83.95
2019-01-21T02:01:44.236Z,83.96
2019-01-21T02:04:12.812Z,84.01
2019-01-21T02:06:41.324Z,84.11
2019-01-21T02:09:09.967Z,83.83
2019-01-21T02:11:38.821Z,83.93
2019-01-21T02:14:07.400Z,83.77
2019-01-21T02:16:35.981Z,83.38
2019-01-21T02:19:04.644Z,83.76
2019-01-21T02:21:34.054Z,83.98
2019-01-21T02:24:04.993Z,84.05
2019-01-21T02:26:34.420Z,84.21
2019-01-21T02:29:08.581Z,83.91
2019-01-21T02:32:13.213Z,84.02
2019-01-21T02:34:53.492Z,83.60
2019-01-21T02:37:30.792Z,83.90
2019-01-21T02:40:17.317Z,83.98
2019-01-21T02:43:03.588Z,83.91
2019-01-21T02:45:51.566Z,84.09
2019-01-21T02:48:29.175Z,83.99
2019-01-21T02:51:20.175Z,83.87
2019-01-21T02:54:00.507Z,84.06
2019-01-21T02:56:34.808Z,84.24
2019-01-21T02:59:12.544Z,84.27
2019-01-21T03:01:49.822Z,84.24
2019-01-21T03:04:27.212Z,84.40
2019-01-21T03:06:58.857Z,84.54
2019-01-21T03:09:36.310Z,84.54
2019-01-21T03:12:13.604Z,84.26
2019-01-21T03:15:00.051Z,84.47
2019-01-21T03:17:42.728Z,84.48
2019-01-21T03:20:32.436Z,84.66
2019-01-21T03:23:22.173Z,84.62
2019-01-21T03:26:17.580Z,84.56
2019-01-21T03:28:52.033Z,84.60
2019-01-21T03:31:32.390Z,84.51
2019-01-21T03:34:15.828Z,84.37
2019-01-21T03:36:56.189Z,84.29
2019-01-21T03:39:56.108Z,83.97
2019-01-21T03:42:42.180Z,84.06
2019-01-21T03:45:36.336Z,83.83
2019-01-21T03:48:07.898Z,83.77
2019-01-21T03:50:42.451Z,83.59
2019-01-21T03:53:19.828Z,83.53
2019-01-21T03:55:50.931Z,83.67
2019-01-21T03:58:28.344Z,83.71
2019-01-21T04:01:14.955Z,83.73
2019-01-21T04:04:01.195Z,83.66
2019-01-21T04:06:32.758Z,83.72
2019-01-21T04:09:16.204Z,83.93
2019-01-21T04:11:48.060Z,83.77
2019-01-21T04:14:22.944Z,84.00
2019-01-21T04:17:27.431Z,84.02
2019-01-21T04:20:18.267Z,84.28
2019-01-21T04:22:52.487Z,85.47
2019-01-21T04:25:30.392Z,85.93
2019-01-21T04:28:16.832Z,86.50
2019-01-21T04:30:54.296Z,86.52
2019-01-21T04:33:43.896Z,86.31
2019-01-21T04:36:33.214Z,86.15
2019-01-21T04:39:10.847Z,86.60
2019-01-21T04:42:03.359Z,87.11
2019-01-21T04:44:37.896Z,87.52
2019-01-21T04:47:21.747Z,87.46
2019-01-21T04:50:08.603Z,87.86
2019-01-21T04:52:49.800Z,87.77
2019-01-21T04:55:42.542Z,86.97
2019-01-21T04:58:38.270Z,86.95
2019-01-21T05:01:12.359Z,86.67
2019-01-21T05:03:46.535Z,86.62
2019-01-21T05:06:30.006Z,86.58
2019-01-21T05:09:04.725Z,86.87
2019-01-21T05:11:39.336Z,86.76
2019-01-21T05:14:26.004Z,86.53
2019-01-21T05:17:12.447Z,86.41
2019-01-21T05:19:46.721Z,86.71
2019-01-21T05:22:27.427Z,86.45
2019-01-21T05:25:21.291Z,86.53
2019-01-21T05:27:58.741Z,86.69
2019-01-21T05:30:55.348Z,87.17
2019-01-21T05:33:36.372Z,87.46
2019-01-21T05:36:23.285Z,87.42
2019-01-21T05:38:57.670Z,87.02
2019-01-21T05:41:51.290Z,87.10
2019-01-21T05:44:46.788Z,86.99
2019-01-21T05:47:37.672Z,86.75
2019-01-21T05:50:33.240Z,86.67
2019-01-21T05:53:19.844Z,87.24
2019-01-21T05:56:13.670Z,87.20
2019-01-21T05:59:09.394Z,87.85
2019-01-21T06:01:57.181Z,87.78
2019-01-21T06:04:46.677Z,87.44
2019-01-21T06:07:28.417Z,87.20
2019-01-21T06:10:14.828Z,86.90
2019-01-21T06:12:55.117Z,86.19
2019-01-21T06:15:35.748Z,86.17
2019-01-21T06:18:19.562Z,86.53
2019-01-21T06:20:54.405Z,86.81
2019-01-21T06:23:28.935Z,87.07
2019-01-21T06:26:09.316Z,87.37
2019-01-21T06:28:56.826Z,87.42
2019-01-21T06:31:28.455Z,87.50
2019-01-21T06:34:23.816Z,87.10
2019-01-21T06:37:01.072Z,87.06
2019-01-21T06:39:38.422Z,86.89
2019-01-21T06:42:12.885Z,86.69
2019-01-21T06:44:50.101Z,86.30
2019-01-21T06:47:33.567Z,86.29
2019-01-21T06:50:13.986Z,85.73
2019-01-21T06:53:05.437Z,86.03
2019-01-21T06:55:42.849Z,85.70
2019-01-21T06:58:20.453Z,85.76
2019-01-21T07:01:13.048Z,86.11
2019-01-21T07:03:50.356Z,86.36
2019-01-21T07:06:25.056Z,86.15
2019-01-21T07:09:17.907Z,87.05
2019-01-21T07:12:14.749Z,87.67
2019-01-21T07:14:55.114Z,87.76
2019-01-21T07:17:39.060Z,88.25
2019-01-21T07:20:22.619Z,88.30
2019-01-21T07:22:54.306Z,87.97
2019-01-21T07:25:37.682Z,87.73
2019-01-21T07:28:12.410Z,87.97
2019-01-21T07:31:02.073Z,87.78
2019-01-21T07:33:48.653Z,87.56
2019-01-21T07:36:36.391Z,88.21
2019-01-21T07:39:22.988Z,89.05
2019-01-21T07:42:06.326Z,89.31
2019-01-21T07:44:43.476Z,88.87
2019-01-21T07:47:20.826Z,88.98
2019-01-21T07:49:55.004Z,89.55
2019-01-21T07:52:32.422Z,89.57
2019-01-21T07:55:31.079Z,89.91
2019-01-21T07:58:24.907Z,89.76
2019-01-21T08:01:08.339Z,89.56
2019-01-21T08:04:08.165Z,89.98
2019-01-21T08:06:42.314Z,90.31
2019-01-21T08:09:19.634Z,90.32
2019-01-21T08:12:25.525Z,90.12
2019-01-21T08:15:01.700Z,89.71
2019-01-21T08:17:45.022Z,89.92
2019-01-21T08:20:19.274Z,89.70
2019-01-21T08:23:06.986Z,90.18
2019-01-21T08:25:47.382Z,90.51
2019-01-21T08:28:19.047Z,89.72
2019-01-21T08:30:56.379Z,89.35
2019-01-21T08:33:33.922Z,88.94
2019-01-21T08:36:18.938Z,88.41
2019-01-21T08:39:15.870Z,88.07
2019-01-21T08:41:50.414Z,88.86
2019-01-21T08:44:39.653Z,89.71
2019-01-21T08:47:31.204Z,90.57
2019-01-21T08:50:18.794Z,90.56
2019-01-21T08:52:59.541Z,89.80
2019-01-21T08:55:33.965Z,89.18
2019-01-21T08:58:17.270Z,89.45
2019-01-21T09:01:08.163Z,89.11
2019-01-21T09:03:54.595Z,88.79
2019-01-21T09:06:26.251Z,88.27
2019-01-21T09:09:04.855Z,89.01
2019-01-21T09:11:57.092Z,89.65
2019-01-21T09:14:45.093Z,89.54
2019-01-21T09:17:22.817Z,89.59
2019-01-21T09:20:10.801Z,89.37
2019-01-21T09:23:17.129Z,88.88
2019-01-21T09:25:57.607Z,89.05
2019-01-21T09:29:01.695Z,89.61
2019-01-21T09:31:38.847Z,89.57
2019-01-21T09:34:22.568Z,89.05
2019-01-21T09:37:10.593Z,90.13
2019-01-21T09:39:51.053Z,90.76
2019-01-21T09:42:31.485Z,90.36
2019-01-21T09:45:08.991Z,90.53
2019-01-21T09:47:36.395Z,90.72
2019-01-21T09:50:06.011Z,90.89
2019-01-21T09:52:34.702Z,90.47
2019-01-21T09:55:03.375Z,90.70
2019-01-21T09:57:33.450Z,90.09
2019-01-21T10:00:03.041Z,90.25
2019-01-21T10:02:33.480Z,89.77
2019-01-21T10:05:02.543Z,89.69
2019-01-21T10:07:33.193Z,89.21
2019-01-21T10:10:33.104Z,89.26
2019-01-21T10:13:38.979Z,88.78
2019-01-21T10:16:28.885Z,88.51
2019-01-21T10:19:16.906Z,88.69
2019-01-21T10:22:03.714Z,88.94
2019-01-21T10:24:56.295Z,88.86
2019-01-21T10:27:45.693Z,88.37
2019-01-21T10:30:41.150Z,88.08
2019-01-21T10:33:34.155Z,88.57
2019-01-21T10:36:28.358Z,88.17
2019-01-21T10:39:09.334Z,87.65
2019-01-21T10:41:42.842Z,87.95
2019-01-21T10:44:28.370Z,88.24
2019-01-21T10:47:09.017Z,88.20
2019-01-21T10:49:46.345Z,87.95
2019-01-21T10:52:23.931Z,86.94
2019-01-21T10:55:01.433Z,86.96
2019-01-21T10:57:56.017Z,87.58
2019-01-21T11:00:48.779Z,87.80
2019-01-21T11:03:26.119Z,87.31
2019-01-21T11:06:00.312Z,87.04
2019-01-21T11:08:49.495Z,87.32
2019-01-21T11:11:32.908Z,87.66
2019-01-21T11:14:20.738Z,88.98
2019-01-21T11:17:10.146Z,88.01
2019-01-21T11:19:47.650Z,88.44
2019-01-21T11:22:19.638Z,88.18
2019-01-21T11:24:53.849Z,87.34
2019-01-21T11:27:28.273Z,87.14
2019-01-21T11:30:19.665Z,86.66
2019-01-21T11:32:51.404Z,86.56
2019-01-21T11:35:34.911Z,86.28
2019-01-21T11:38:06.558Z,86.04
2019-01-21T11:40:44.119Z,85.51
2019-01-21T11:43:24.821Z,86.15
2019-01-21T11:46:11.491Z,86.58
2019-01-21T11:48:49.128Z,86.72
2019-01-21T11:51:46.234Z,86.62
2019-01-21T11:54:20.884Z,86.51
2019-01-21T11:56:58.419Z,84.99
2019-01-21T11:59:36.194Z,84.83
2019-01-21T12:02:24.591Z,85.30
2019-01-21T12:04:56.331Z,85.15
2019-01-21T12:07:33.471Z,85.14
2019-01-21T12:10:24.312Z,84.74
2019-01-21T12:13:16.635Z,85.24
2019-01-21T12:15:57.297Z,85.37
2019-01-21T12:18:28.944Z,85.13
2019-01-21T12:21:12.544Z,84.59
2019-01-21T12:23:46.976Z,84.27
2019-01-21T12:26:39.446Z,85.00
2019-01-21T12:29:13.576Z,84.87
2019-01-21T12:31:51.158Z,84.46
2019-01-21T12:34:28.516Z,83.90
2019-01-21T12:37:00.213Z,84.32
2019-01-21T12:39:57.303Z,84.92
2019-01-21T12:42:29.035Z,85.44
2019-01-21T12:45:09.464Z,85.10
2019-01-21T12:47:53.087Z,85.10
2019-01-21T12:50:42.941Z,85.59
2019-01-21T12:53:45.906Z,85.02
2019-01-21T12:56:42.225Z,84.86
2019-01-21T12:59:43.790Z,85.36
2019-01-21T13:02:24.078Z,84.58
2019-01-21T13:04:55.859Z,84.33
2019-01-21T13:07:33.181Z,84.49
2019-01-21T13:10:21.129Z,84.22
2019-01-21T13:13:09.079Z,84.18
2019-01-21T13:15:52.613Z,85.30
2019-01-21T13:18:33.502Z,85.13
2019-01-21T13:21:10.958Z,84.71
2019-01-21T13:23:42.510Z,84.95
2019-01-21T13:26:14.199Z,84.39
2019-01-21T13:28:45.859Z,85.36
2019-01-21T13:31:26.324Z,85.76
2019-01-21T13:34:03.985Z,85.95
2019-01-21T13:36:41.057Z,85.92
2019-01-21T13:39:27.538Z,85.93
2019-01-21T13:42:04.877Z,85.90
2019-01-21T13:48:09.896Z,85.40
2019-01-21T13:50:41.589Z,85.22
2019-01-21T13:53:21.994Z,85.52
2019-01-21T13:56:18.912Z,85.42
2019-01-21T13:59:06.174Z,85.63
2019-01-21T14:02:06.105Z,85.37
2019-01-21T14:05:00.367Z,85.49
2019-01-21T14:07:47.257Z,85.41
2019-01-21T14:10:29.642Z,85.88
2019-01-21T14:13:07.408Z,85.95
2019-01-21T14:15:42.088Z,85.95
2019-01-21T14:18:30.002Z,85.68
2019-01-21T14:21:22.817Z,85.47
2019-01-21T14:23:57.829Z,85.94
2019-01-21T14:27:05.273Z,85.90
2019-01-21T14:29:42.830Z,85.86
2019-01-21T14:32:23.483Z,85.34
2019-01-21T14:34:57.995Z,85.72
2019-01-21T14:37:44.603Z,85.27
2019-01-21T14:40:34.412Z,84.95
2019-01-21T14:43:17.771Z,85.02
2019-01-21T14:45:58.567Z,85.71
2019-01-21T14:48:32.757Z,85.65
2019-01-21T14:51:07.346Z,85.95
2019-01-21T14:53:47.911Z,85.34
2019-01-21T14:56:46.569Z,85.20
2019-01-21T14:59:28.728Z,85.46
2019-01-21T15:02:05.964Z,85.39
2019-01-21T15:04:53.962Z,85.22
2019-01-21T15:07:25.690Z,85.27
2019-01-21T15:10:21.076Z,85.39
2019-01-21T15:12:55.377Z,85.78
2019-01-21T15:15:38.802Z,85.97
2019-01-21T15:18:13.224Z,86.40
2019-01-21T15:21:03.056Z,86.35
2019-01-21T15:23:40.349Z,86.47
2019-01-21T15:26:20.974Z,86.20
2019-01-21T15:28:58.515Z,86.47
2019-01-21T15:31:40.354Z,87.27
2019-01-21T15:34:19.139Z,87.64
2019-01-21T15:36:59.591Z,87.65
2019-01-21T15:39:53.954Z,87.91
2019-01-21T15:42:32.048Z,87.83
2019-01-21T15:45:25.459Z,87.81
2019-01-21T15:51:21.054Z,87.63
2019-01-21T15:54:06.101Z,87.22
2019-01-21T15:56:50.173Z,87.47
2019-01-21T15:59:34.212Z,87.47
2019-01-21T16:02:13.932Z,87.56
2019-01-21T16:05:00.196Z,87.47
2019-01-21T16:07:46.209Z,87.68
2019-01-21T16:10:47.763Z,87.46
2019-01-21T16:16:35.487Z,86.88
2019-01-21T16:19:22.319Z,87.26
2019-01-21T16:22:15.095Z,87.28
2019-01-21T16:25:37.695Z,87.67
2019-01-21T16:28:24.924Z,87.75
2019-01-21T16:31:05.038Z,87.79
2019-01-21T16:37:08.837Z,87.93
2019-01-21T16:39:52.192Z,87.81
2019-01-21T16:42:19.036Z,88.04
2019-01-21T16:44:47.727Z,88.29
2019-01-21T16:47:16.504Z,88.97
2019-01-21T16:49:45.358Z,88.57
2019-01-21T16:52:13.984Z,88.45
2019-01-21T16:54:42.815Z,88.25
2019-01-21T17:00:13.042Z,88.77
2019-01-21T17:02:41.497Z,89.09
2019-01-21T17:05:13.615Z,88.59
2019-01-21T17:07:47.849Z,88.82
2019-01-21T17:10:39.086Z,88.93
2019-01-21T17:13:00.109Z,89.31
2019-01-21T17:15:28.730Z,89.15
2019-01-21T17:17:57.453Z,89.36
2019-01-21T17:20:26.051Z,89.00
2019-01-21T17:23:31.714Z,89.38
2019-01-21T17:25:54.740Z,89.42
2019-01-21T17:28:23.350Z,89.42
2019-01-21T17:30:52.266Z,89.26
2019-01-21T17:33:20.995Z,89.17
2019-01-21T17:35:49.535Z,88.88
2019-01-21T17:38:18.039Z,89.02
2019-01-21T17:40:46.621Z,89.26
2019-01-21T17:43:15.087Z,89.53
2019-01-21T17:45:43.734Z,89.86
2019-01-21T17:48:12.335Z,89.87
2019-01-21T17:50:40.994Z,90.25
2019-01-21T17:53:10.062Z,90.40
2019-01-21T17:55:42.980Z,90.40
2019-01-21T17:58:11.467Z,90.50
2019-01-21T18:00:40.038Z,90.42
2019-01-21T18:03:08.691Z,90.53
2019-01-21T18:05:37.661Z,90.89
2019-01-21T18:08:06.133Z,90.93
2019-01-21T18:10:34.735Z,90.85
2019-01-21T18:13:19.838Z,90.83
2019-01-21T18:15:50.484Z,90.68
2019-01-21T18:18:19.090Z,90.79
2019-01-21T18:20:47.678Z,90.86
2019-01-21T18:23:16.276Z,90.94
2019-01-21T18:25:45.151Z,90.82
2019-01-21T18:28:13.621Z,91.15
2019-01-21T18:30:44.376Z,91.49
2019-01-21T18:33:13.253Z,91.69
2019-01-21T18:35:42.146Z,92.11
2019-01-21T18:38:10.898Z,92.35
2019-01-21T18:40:39.537Z,92.24
2019-01-21T18:43:18.763Z,92.16
2019-01-21T18:45:56.204Z,92.74
2019-01-21T18:48:24.843Z,92.61
2019-01-21T18:51:02.363Z,92.66
2019-01-21T18:53:29.693Z,92.82
2019-01-21T18:55:58.911Z,92.72
2019-01-21T18:58:27.487Z,93.30
2019-01-21T19:00:56.867Z,93.27
2019-01-21T19:03:42.014Z,93.32
2019-01-21T19:06:10.718Z,93.08
2019-01-21T19:08:39.843Z,92.94
2019-01-21T19:11:08.393Z,93.51
2019-01-21T19:13:37.037Z,93.54
2019-01-21T19:16:05.729Z,93.52
2019-01-21T19:18:34.300Z,93.68
2019-01-21T19:21:02.782Z,93.65
2019-01-21T19:23:31.453Z,93.45
2019-01-21T19:26:00.130Z,92.92
2019-01-21T19:28:29.383Z,92.31
2019-01-21T19:30:58.030Z,92.30
2019-01-21T19:33:28.127Z,92.76
2019-01-21T19:35:58.082Z,93.04
2019-01-21T19:38:28.918Z,93.58
2019-01-21T19:40:57.690Z,93.27
2019-01-21T19:43:26.217Z,93.43
2019-01-21T19:45:54.951Z,92.98
2019-01-21T19:48:23.480Z,93.21
2019-01-21T19:50:52.036Z,93.44
2019-01-21T19:53:24.996Z,93.36
2019-01-21T19:55:53.565Z,93.26
2019-01-21T19:58:25.432Z,93.52
2019-01-21T20:00:54.007Z,93.70
2019-01-21T20:03:22.631Z,93.11
2019-01-21T20:05:51.532Z,93.08
2019-01-21T20:08:20.155Z,92.82
2019-01-21T20:10:48.739Z,93.24
2019-01-21T20:13:18.237Z,93.23
2019-01-21T20:15:46.965Z,93.58
2019-01-21T20:18:17.042Z,93.57
2019-01-21T20:20:46.941Z,93.02
2019-01-21T20:23:16.501Z,92.83
2019-01-21T20:25:45.339Z,92.78
2019-01-21T20:28:15.292Z,92.63
2019-01-21T20:30:44.195Z,92.80
2019-01-21T20:33:12.744Z,92.74
2019-01-21T20:35:57.363Z,92.54
2019-01-21T20:38:28.881Z,92.55
2019-01-21T20:41:00.630Z,92.65
2019-01-21T20:43:29.235Z,92.64
2019-01-21T20:45:57.844Z,92.88
2019-01-21T20:48:26.494Z,93.44
2019-01-21T20:50:55.142Z,93.47
2019-01-21T20:53:25.265Z,93.32
2019-01-21T20:55:53.869Z,93.29
2019-01-21T20:58:22.428Z,93.11
2019-01-21T21:00:54.271Z,93.41
2019-01-21T21:03:22.870Z,93.24
2019-01-21T21:05:54.082Z,92.40
2019-01-21T21:08:22.757Z,92.71
2019-01-21T21:10:51.615Z,92.83
2019-01-21T21:13:20.277Z,92.21
2019-01-21T21:15:48.892Z,92.36
2019-01-21T21:18:18.935Z,92.47
2019-01-21T21:20:47.449Z,92.26
2019-01-21T21:23:15.973Z,91.89
2019-01-21T21:25:44.596Z,91.61
2019-01-21T21:28:13.182Z,91.67
2019-01-21T21:30:41.751Z,91.95
2019-01-21T21:33:10.377Z,91.77
2019-01-21T21:35:39.337Z,91.78
2019-01-21T21:38:07.964Z,91.75
2019-01-21T21:40:36.522Z,91.78
2019-01-21T21:43:05.234Z,91.69
2019-01-21T21:45:34.133Z,91.46
2019-01-21T21:48:02.799Z,91.49
2019-01-21T21:50:31.860Z,91.60
2019-01-21T21:53:00.837Z,91.84
2019-01-21T21:55:30.029Z,92.12
2019-01-21T21:57:59.000Z,92.07
2019-01-21T22:00:28.784Z,91.78
2019-01-21T22:02:57.418Z,91.98
2019-01-21T22:05:26.644Z,91.92
2019-01-21T22:07:55.265Z,92.02
2019-01-21T22:10:27.489Z,92.31
2019-01-21T22:12:56.109Z,92.28
2019-01-21T22:15:25.401Z,92.09
2019-01-21T22:17:55.591Z,92.14
2019-01-21T22:20:25.067Z,91.98
2019-01-21T22:22:53.649Z,92.19
2019-01-21T22:25:24.034Z,92.14
2019-01-21T22:27:52.678Z,92.17
2019-01-21T22:30:25.712Z,92.17
2019-01-21T22:32:54.557Z,92.27
2019-01-21T22:35:23.466Z,92.18
2019-01-21T22:37:52.078Z,91.93
2019-01-21T22:40:22.089Z,91.98
2019-01-21T22:42:52.462Z,91.88
2019-01-21T22:45:21.355Z,91.90
2019-01-21T22:47:50.809Z,92.03
2019-01-21T22:50:19.663Z,92.09
2019-01-21T22:52:48.195Z,91.91
2019-01-21T22:55:17.187Z,92.11
2019-01-21T22:57:45.832Z,92.12
2019-01-21T23:00:17.491Z,91.85
2019-01-21T23:02:46.311Z,91.68
2019-01-21T23:05:14.928Z,91.54
2019-01-21T23:07:43.594Z,91.57
2019-01-21T23:10:12.134Z,91.66
2019-01-21T23:12:40.691Z,91.45
2019-01-21T23:15:09.868Z,91.61
2019-01-21T23:17:38.792Z,91.55
2019-01-21T23:20:10.101Z,91.58
2019-01-21T23:22:38.717Z,91.35
2019-01-21T23:25:08.114Z,91.61
2019-01-21T23:27:37.030Z,91.57
2019-01-21T23:30:20.583Z,91.50
2019-01-21T23:32:49.145Z,90.82
2019-01-21T23:35:18.238Z,90.65
2019-01-21T23:37:46.811Z,90.67
2019-01-21T23:40:15.598Z,90.18
2019-01-21T23:42:45.787Z,90.53
2019-01-21T23:45:14.590Z,90.20
2019-01-21T23:47:43.291Z,90.40
2019-01-21T23:50:13.924Z,90.41
2019-01-21T23:52:43.070Z,90.08
2019-01-21T23:55:12.680Z,89.82
2019-01-21T23:57:41.293Z,90.09
